createdAt,value
2022-08-03T00:01:50.542Z,96501.66
2022-08-03T00:04:17.285Z,96488.16
2022-08-03T00:06:43.680Z,96499.72
2022-08-03T00:09:10.942Z,96502.97
2022-08-03T00:11:37.602Z,96494.81
2022-08-03T00:14:05.694Z,96498.84
2022-08-03T00:16:32.296Z,96501.75
2022-08-03T00:18:58.678Z,96492.66
2022-08-03T00:21:27.338Z,96498.78
2022-08-03T00:23:53.666Z,96485.38
2022-08-03T00:26:21.254Z,96493.56
2022-08-03T00:28:48.450Z,96483.56
2022-08-03T00:31:14.812Z,96489.84
2022-08-03T00:33:59.388Z,96487.72
2022-08-03T00:36:26.391Z,96483.03
2022-08-03T00:38:52.728Z,96485.16
2022-08-03T00:41:19.202Z,96481.19
2022-08-03T00:43:47.306Z,96482.69
2022-08-03T00:46:16.447Z,96481.25
2022-08-03T00:48:47.228Z,96474.34
2022-08-03T00:51:13.883Z,96482.16
2022-08-03T00:53:40.224Z,96476.56
2022-08-03T00:56:06.784Z,96481.75
2022-08-03T00:58:33.236Z,96474.25
2022-08-03T01:00:59.744Z,96485.38
2022-08-03T01:03:26.420Z,96476.25
2022-08-03T01:06:15.188Z,96477.84
2022-08-03T01:08:52.287Z,96485.69
2022-08-03T01:11:36.691Z,96481.28
2022-08-03T01:14:49.153Z,96481.41
2022-08-03T01:17:25.533Z,96478.16
2022-08-03T01:20:02.547Z,96484.50
2022-08-03T01:22:44.853Z,96483.38
2022-08-03T01:25:28.367Z,96486.13
2022-08-03T01:28:17.549Z,96484.50
2022-08-03T01:30:46.014Z,96489.16
2022-08-03T01:33:19.133Z,96482.94
2022-08-03T01:35:50.663Z,96491.00
2022-08-03T01:38:24.326Z,96477.22
2022-08-03T01:40:54.587Z,96488.91
2022-08-03T01:43:59.078Z,96483.69
2022-08-03T01:46:15.604Z,96485.78
2022-08-03T01:48:44.733Z,96480.25
2022-08-03T01:51:12.132Z,96487.44
2022-08-03T01:53:42.719Z,96479.88
2022-08-03T01:56:10.877Z,96483.09
2022-08-03T01:58:39.665Z,96483.00
2022-08-03T02:01:09.219Z,96474.19
2022-08-03T02:03:38.401Z,96476.06
2022-08-03T02:07:02.103Z,96476.19
2022-08-03T02:09:14.724Z,96480.78
2022-08-03T02:11:42.559Z,96469.19
2022-08-03T02:14:10.350Z,96472.84
2022-08-03T02:16:37.120Z,96475.00
2022-08-03T02:19:06.350Z,96476.75
2022-08-03T02:21:56.912Z,96479.97
2022-08-03T02:24:22.074Z,96470.38
2022-08-03T02:26:50.531Z,96476.41
2022-08-03T02:29:21.677Z,96473.28
2022-08-03T02:32:09.811Z,96478.34
2022-08-03T02:34:36.819Z,96468.22
2022-08-03T02:37:04.411Z,96465.13
2022-08-03T02:39:35.500Z,96465.09
2022-08-03T02:42:05.438Z,96472.66
2022-08-03T02:44:35.545Z,96467.75
2022-08-03T02:47:09.498Z,96470.22
2022-08-03T02:49:49.891Z,96468.53
2022-08-03T02:52:19.437Z,96464.41
2022-08-03T02:54:47.677Z,96476.81
2022-08-03T02:57:16.255Z,96469.16
2022-08-03T02:59:44.443Z,96468.72
2022-08-03T03:02:12.156Z,96456.59
2022-08-03T03:04:38.962Z,96460.47
2022-08-03T03:07:22.870Z,96464.22
2022-08-03T03:09:49.991Z,96469.25
2022-08-03T03:12:18.103Z,96466.13
2022-08-03T03:14:44.619Z,96463.28
2022-08-03T03:17:12.031Z,96471.34
2022-08-03T03:19:40.707Z,96464.56
2022-08-03T03:22:08.931Z,96467.00
2022-08-03T03:24:36.978Z,96471.13
2022-08-03T03:27:03.926Z,96475.25
2022-08-03T03:29:31.909Z,96472.31
2022-08-03T03:32:08.451Z,96471.16
2022-08-03T03:34:37.160Z,96482.31
2022-08-03T03:37:03.726Z,96478.22
2022-08-03T03:39:30.278Z,96481.84
2022-08-03T03:41:57.338Z,96483.63
2022-08-03T03:44:28.814Z,96477.34
2022-08-03T03:46:57.402Z,96480.59
2022-08-03T03:49:23.950Z,96481.13
2022-08-03T03:51:53.876Z,96492.19
2022-08-03T03:54:20.350Z,96492.13
2022-08-03T03:56:47.562Z,96491.34
2022-08-03T03:59:14.092Z,96490.91
2022-08-03T04:01:40.605Z,96483.38
2022-08-03T04:04:25.382Z,96479.50
2022-08-03T04:07:10.147Z,96493.69
2022-08-03T04:09:59.206Z,96492.00
2022-08-03T04:12:36.796Z,96485.66
2022-08-03T04:15:04.449Z,96485.28
2022-08-03T04:17:32.340Z,96487.78
2022-08-03T04:20:02.417Z,96495.34
2022-08-03T04:22:32.512Z,96500.88
2022-08-03T04:25:02.734Z,96496.00
2022-08-03T04:27:34.686Z,96491.91
2022-08-03T04:30:04.581Z,96494.03
2022-08-03T04:32:31.793Z,96492.31
2022-08-03T04:34:58.344Z,96501.97
2022-08-03T04:37:35.256Z,96490.25
2022-08-03T04:40:05.766Z,96499.75
2022-08-03T04:42:33.794Z,96497.22
2022-08-03T04:45:02.624Z,96507.72
2022-08-03T04:47:32.797Z,96508.97
2022-08-03T04:50:01.582Z,96511.69
2022-08-03T04:52:28.055Z,96508.78
2022-08-03T04:54:54.379Z,96518.88
2022-08-03T04:57:22.435Z,96514.38
2022-08-03T05:00:01.991Z,96520.53
2022-08-03T05:02:29.089Z,96521.97
2022-08-03T05:04:55.403Z,96519.06
2022-08-03T05:07:24.976Z,96514.69
2022-08-03T05:09:52.784Z,96518.78
2022-08-03T05:12:19.486Z,96514.16
2022-08-03T05:14:45.824Z,96518.25
2022-08-03T05:17:12.154Z,96519.50
2022-08-03T05:19:38.483Z,96514.94
2022-08-03T05:22:04.820Z,96518.78
2022-08-03T05:24:31.216Z,96520.44
2022-08-03T05:26:57.550Z,96525.53
2022-08-03T05:29:23.906Z,96521.66
2022-08-03T05:31:50.227Z,96523.09
2022-08-03T05:34:16.569Z,96528.44
2022-08-03T05:36:42.895Z,96519.34
2022-08-03T05:39:09.224Z,96530.84
2022-08-03T05:41:35.551Z,96538.88
2022-08-03T05:44:04.294Z,96532.50
2022-08-03T05:46:30.627Z,96531.84
2022-08-03T05:48:56.998Z,96534.13
2022-08-03T05:51:23.500Z,96528.78
2022-08-03T05:53:49.843Z,96532.06
2022-08-03T05:56:16.913Z,96529.59
2022-08-03T05:58:47.736Z,96535.75
2022-08-03T06:01:15.637Z,96532.50
2022-08-03T06:03:42.114Z,96532.88
2022-08-03T06:06:08.455Z,96534.28
2022-08-03T06:08:35.268Z,96530.06
2022-08-03T06:11:01.617Z,96526.09
2022-08-03T06:13:28.044Z,96524.44
2022-08-03T06:15:54.379Z,96519.84
2022-08-03T06:18:20.828Z,96521.59
2022-08-03T06:20:49.363Z,96519.69
2022-08-03T06:23:18.037Z,96524.63
2022-08-03T06:25:45.813Z,96527.88
2022-08-03T06:28:53.329Z,96522.63
2022-08-03T06:31:06.600Z,96526.97
2022-08-03T06:34:30.988Z,96526.13
2022-08-03T06:36:19.582Z,96524.38
2022-08-03T06:38:46.079Z,96524.69
2022-08-03T06:41:12.431Z,96526.28
2022-08-03T06:44:03.065Z,96526.41
2022-08-03T06:46:25.998Z,96530.91
2022-08-03T06:48:52.945Z,96534.16
2022-08-03T06:51:19.346Z,96537.19
2022-08-03T06:53:45.688Z,96539.44
2022-08-03T06:56:12.102Z,96540.38
2022-08-03T06:58:38.421Z,96539.59
2022-08-03T07:01:04.827Z,96534.97
2022-08-03T07:03:31.226Z,96529.31
2022-08-03T07:05:57.616Z,96539.44
2022-08-03T07:08:33.974Z,96534.97
2022-08-03T07:11:01.217Z,96531.22
2022-08-03T07:13:27.587Z,96538.69
2022-08-03T07:15:56.107Z,96537.50
2022-08-03T07:18:27.661Z,96536.88
2022-08-03T07:20:57.323Z,96530.94
2022-08-03T07:23:23.819Z,96526.81
2022-08-03T07:25:50.737Z,96529.91
2022-08-03T07:28:17.139Z,96531.72
2022-08-03T07:30:43.476Z,96535.81
2022-08-03T07:33:09.845Z,96535.34
2022-08-03T07:35:36.313Z,96534.59
2022-08-03T07:38:02.843Z,96538.81
2022-08-03T07:40:31.561Z,96539.53
2022-08-03T07:42:58.962Z,96537.22
2022-08-03T07:45:26.436Z,96538.75
2022-08-03T07:47:55.432Z,96531.94
2022-08-03T07:50:22.754Z,96535.63
2022-08-03T07:52:50.807Z,96536.34
2022-08-03T07:55:22.799Z,96540.50
2022-08-03T07:58:16.505Z,96532.44
2022-08-03T08:00:45.732Z,96535.75
2022-08-03T08:03:13.147Z,96529.41
2022-08-03T08:05:39.872Z,96534.13
2022-08-03T08:08:06.768Z,96525.72
2022-08-03T08:10:33.691Z,96525.16
2022-08-03T08:13:00.115Z,96525.03
2022-08-03T08:15:26.461Z,96528.88
2022-08-03T08:17:55.897Z,96531.47
2022-08-03T08:20:31.346Z,96520.69
2022-08-03T08:23:03.566Z,96523.41
2022-08-03T08:25:38.639Z,96527.31
2022-08-03T08:28:29.190Z,96531.38
2022-08-03T08:30:51.519Z,96528.78
2022-08-03T08:33:23.467Z,96523.91
2022-08-03T08:35:51.570Z,96528.53
2022-08-03T08:38:17.927Z,96520.78
2022-08-03T08:40:44.359Z,96517.75
2022-08-03T08:43:10.743Z,96520.06
2022-08-03T08:45:37.778Z,96519.09
2022-08-03T08:48:08.347Z,96523.06
2022-08-03T08:50:37.394Z,96516.00
2022-08-03T08:53:06.984Z,96519.06
2022-08-03T08:55:58.438Z,96521.22
2022-08-03T08:58:25.026Z,96517.25
2022-08-03T09:00:51.768Z,96518.34
2022-08-03T09:03:22.654Z,96523.94
2022-08-03T09:05:56.614Z,96517.94
2022-08-03T09:08:23.212Z,96516.56
2022-08-03T09:10:49.616Z,96516.16
2022-08-03T09:13:18.287Z,96511.06
2022-08-03T09:16:00.997Z,96517.47
2022-08-03T09:18:32.544Z,96515.59
2022-08-03T09:21:34.269Z,96511.97
2022-08-03T09:24:05.178Z,96509.41
2022-08-03T09:26:35.544Z,96513.03
2022-08-03T09:29:14.535Z,96507.97
2022-08-03T09:31:44.551Z,96502.19
2022-08-03T09:34:13.436Z,96509.19
2022-08-03T09:36:48.469Z,96506.56
2022-08-03T09:39:41.822Z,96510.34
2022-08-03T09:42:14.991Z,96510.50
2022-08-03T09:44:48.478Z,96501.44
2022-08-03T09:47:28.393Z,96504.13
2022-08-03T09:50:06.335Z,96499.78
2022-08-03T09:52:49.442Z,96505.34
2022-08-03T09:56:30.765Z,96497.75
2022-08-03T09:58:10.782Z,96495.06
2022-08-03T10:01:06.363Z,96490.91
2022-08-03T10:03:35.976Z,96489.41
2022-08-03T10:06:29.153Z,96489.91
2022-08-03T10:09:09.500Z,96492.53
2022-08-03T10:11:41.208Z,96483.03
2022-08-03T10:14:10.223Z,96483.75
2022-08-03T10:16:38.960Z,96480.84
2022-08-03T10:19:07.339Z,96473.69
2022-08-03T10:21:39.148Z,96477.00
2022-08-03T10:24:08.186Z,96475.44
2022-08-03T10:26:49.799Z,96468.97
2022-08-03T10:29:22.305Z,96470.69
2022-08-03T10:31:57.553Z,96472.38
2022-08-03T10:34:29.117Z,96469.56
2022-08-03T10:36:58.747Z,96466.59
2022-08-03T10:39:29.405Z,96468.69
2022-08-03T10:41:58.685Z,96463.91
2022-08-03T10:44:33.091Z,96457.59
2022-08-03T10:46:59.850Z,96468.25
2022-08-03T10:49:34.605Z,96458.19
2022-08-03T10:52:02.728Z,96463.28
2022-08-03T10:55:03.351Z,96465.16
2022-08-03T10:57:42.127Z,96453.13
2022-08-03T11:00:10.331Z,96452.25
2022-08-03T11:03:03.842Z,96453.59
2022-08-03T11:05:32.706Z,96448.44
2022-08-03T11:08:22.403Z,96447.44
2022-08-03T11:10:50.210Z,96442.38
2022-08-03T11:13:22.208Z,96438.41
2022-08-03T11:15:52.504Z,96441.16
2022-08-03T11:18:19.600Z,96439.81
2022-08-03T11:20:56.124Z,96439.50
2022-08-03T11:24:04.020Z,96428.59
2022-08-03T11:26:28.469Z,96426.56
2022-08-03T11:29:28.673Z,96424.63
2022-08-03T11:31:55.098Z,96429.88
2022-08-03T11:34:21.468Z,96425.16
2022-08-03T11:37:21.297Z,96423.28
2022-08-03T11:39:50.506Z,96418.63
2022-08-03T11:42:26.942Z,96423.53
2022-08-03T11:44:58.260Z,96418.28
2022-08-03T11:47:27.220Z,96414.53
2022-08-03T11:50:01.883Z,96413.41
2022-08-03T11:52:35.586Z,96412.63
2022-08-03T11:55:02.249Z,96400.81
2022-08-03T11:59:19.212Z,96407.38
2022-08-03T12:00:32.933Z,96397.66
2022-08-03T12:03:11.842Z,96405.53
2022-08-03T12:05:51.698Z,96406.59
2022-08-03T12:08:39.531Z,96396.84
2022-08-03T12:11:08.518Z,96391.19
2022-08-03T12:14:36.754Z,96387.13
2022-08-03T12:16:33.448Z,96393.63
2022-08-03T12:19:05.515Z,96387.13
2022-08-03T12:21:32.455Z,96390.66
2022-08-03T12:24:03.963Z,96388.75
2022-08-03T12:26:42.682Z,96388.72
2022-08-03T12:29:19.669Z,96384.97
2022-08-03T12:31:46.252Z,96390.09
2022-08-03T12:34:13.543Z,96384.13
2022-08-03T12:36:51.226Z,96380.84
2022-08-03T12:39:22.487Z,96386.78
2022-08-03T12:41:53.992Z,96389.81
2022-08-03T12:44:33.040Z,96387.13
2022-08-03T12:47:00.706Z,96384.66
2022-08-03T12:49:28.371Z,96379.25
2022-08-03T12:51:54.719Z,96378.97
2022-08-03T12:54:24.577Z,96376.72
2022-08-03T12:57:04.652Z,96367.78
2022-08-03T12:59:45.140Z,96373.00
2022-08-03T13:02:23.551Z,96384.94
2022-08-03T13:04:51.490Z,96370.75
2022-08-03T13:07:19.542Z,96370.19
2022-08-03T13:09:52.908Z,96366.47
2022-08-03T13:12:21.494Z,96372.47
2022-08-03T13:14:50.775Z,96378.44
2022-08-03T13:17:18.024Z,96363.78
2022-08-03T13:19:45.951Z,96358.59
2022-08-03T13:22:22.683Z,96356.38
2022-08-03T13:24:52.141Z,96362.84
2022-08-03T13:28:01.661Z,96365.31
2022-08-03T13:30:07.027Z,96353.88
2022-08-03T13:32:33.557Z,96347.69
2022-08-03T13:35:00.454Z,96353.34
2022-08-03T13:37:27.335Z,96345.94
2022-08-03T13:39:59.227Z,96346.41
2022-08-03T13:42:31.922Z,96345.06
2022-08-03T13:44:59.532Z,96347.34
2022-08-03T13:47:26.870Z,96341.19
2022-08-03T13:50:00.071Z,96347.34
2022-08-03T13:52:37.649Z,96343.53
2022-08-03T13:55:06.611Z,96349.44
2022-08-03T13:58:02.242Z,96342.50
2022-08-03T14:00:27.704Z,96336.84
2022-08-03T14:03:01.902Z,96343.53
2022-08-03T14:05:32.047Z,96337.19
2022-08-03T14:08:04.744Z,96341.19
2022-08-03T14:10:35.782Z,96335.56
2022-08-03T14:13:02.610Z,96333.66
2022-08-03T14:15:29.082Z,96327.94
2022-08-03T14:17:56.417Z,96323.69
2022-08-03T14:20:36.741Z,96317.44
2022-08-03T14:23:12.755Z,96320.66
2022-08-03T14:25:50.430Z,96312.22
2022-08-03T14:28:22.144Z,96308.50
2022-08-03T14:30:48.825Z,96312.78
2022-08-03T14:33:15.549Z,96310.94
2022-08-03T14:35:42.154Z,96312.00
2022-08-03T14:38:08.489Z,96302.06
2022-08-03T14:40:35.040Z,96304.28
2022-08-03T14:43:02.401Z,96294.69
2022-08-03T14:45:28.805Z,96294.53
2022-08-03T14:50:34.712Z,96291.53
2022-08-03T14:50:46.754Z,96294.72
2022-08-03T14:53:17.484Z,96284.16
2022-08-03T14:55:50.388Z,96292.03
2022-08-03T14:58:21.256Z,96298.13
2022-08-03T15:00:49.093Z,96287.03
2022-08-03T15:03:17.293Z,96282.25
2022-08-03T15:05:44.296Z,96277.97
2022-08-03T15:08:10.820Z,96283.63
2022-08-03T15:10:43.840Z,96280.09
2022-08-03T15:13:11.196Z,96283.78
2022-08-03T15:15:37.528Z,96277.69
2022-08-03T15:18:04.010Z,96282.31
2022-08-03T15:20:43.223Z,96270.47
2022-08-03T15:23:11.656Z,96264.31
2022-08-03T15:26:28.283Z,96268.94
2022-08-03T15:28:24.480Z,96257.34
2022-08-03T15:30:54.292Z,96262.41
2022-08-03T15:33:21.037Z,96251.00
2022-08-03T15:35:47.762Z,96249.13
2022-08-03T15:38:14.277Z,96257.44
2022-08-03T15:40:40.952Z,96248.59
2022-08-03T15:43:07.433Z,96249.72
2022-08-03T15:45:35.432Z,96248.03
2022-08-03T15:48:04.143Z,96244.09
2022-08-03T15:50:30.588Z,96239.25
2022-08-03T15:52:57.039Z,96239.66
2022-08-03T15:55:23.406Z,96237.72
2022-08-03T15:59:09.397Z,96241.88
2022-08-03T16:00:36.183Z,96233.06
2022-08-03T16:03:02.551Z,96231.81
2022-08-03T16:05:29.452Z,96234.47
2022-08-03T16:08:02.842Z,96225.88
2022-08-03T16:10:31.666Z,96231.09
2022-08-03T16:13:01.185Z,96229.88
2022-08-03T16:15:27.863Z,96231.25
2022-08-03T16:17:54.464Z,96230.81
2022-08-03T16:20:31.210Z,96221.63
2022-08-03T16:23:08.489Z,96225.22
2022-08-03T16:25:42.060Z,96220.16
2022-08-03T16:28:13.733Z,96223.78
2022-08-03T16:30:42.738Z,96223.06
2022-08-03T16:33:09.372Z,96222.34
2022-08-03T16:35:36.191Z,96219.41
2022-08-03T16:38:09.228Z,96228.75
2022-08-03T16:40:36.743Z,96216.19
2022-08-03T16:43:18.760Z,96218.56
2022-08-03T16:45:48.635Z,96214.84
2022-08-03T16:48:15.827Z,96213.88
2022-08-03T16:50:42.822Z,96212.56
2022-08-03T16:53:16.285Z,96217.47
2022-08-03T16:55:53.899Z,96211.47
2022-08-03T16:58:24.497Z,96212.19
2022-08-03T17:01:20.927Z,96210.56
2022-08-03T17:04:01.224Z,96206.56
2022-08-03T17:06:34.355Z,96209.72
2022-08-03T17:09:02.133Z,96207.56
2022-08-03T17:11:29.990Z,96213.78
2022-08-03T17:13:59.456Z,96209.69
2022-08-03T17:16:25.866Z,96204.59
2022-08-03T17:18:56.623Z,96212.69
2022-08-03T17:21:29.591Z,96211.91
2022-08-03T17:24:19.725Z,96211.13
2022-08-03T17:26:49.909Z,96214.53
2022-08-03T17:29:23.201Z,96216.97
2022-08-03T17:31:52.820Z,96212.97
2022-08-03T17:34:20.776Z,96215.00
2022-08-03T17:37:17.752Z,96206.59
2022-08-03T17:42:31.266Z,96205.75
2022-08-03T17:45:02.518Z,96215.75
2022-08-03T17:47:41.475Z,96222.69
2022-08-03T17:50:25.542Z,96226.34
2022-08-03T17:53:06.821Z,96228.97
2022-08-03T17:55:57.227Z,96227.16
2022-08-03T17:58:34.305Z,96225.66
2022-08-03T18:01:59.981Z,96231.50
2022-08-03T18:04:11.886Z,96235.91
2022-08-03T18:06:55.709Z,96234.72
2022-08-03T18:10:04.316Z,96238.47
2022-08-03T18:12:22.376Z,96242.41
2022-08-03T18:14:57.345Z,96238.56
2022-08-03T18:17:55.393Z,96237.66
2022-08-03T18:20:33.188Z,96241.97
2022-08-03T18:23:04.757Z,96233.28
2022-08-03T18:25:44.928Z,96236.41
2022-08-03T18:28:18.930Z,96237.72
2022-08-03T18:30:53.418Z,96237.84
2022-08-03T18:34:19.531Z,96239.25
2022-08-03T18:36:17.735Z,96236.09
2022-08-03T18:38:51.825Z,96234.28
2022-08-03T18:41:32.735Z,96243.88
2022-08-03T18:44:09.066Z,96236.81
2022-08-03T18:46:53.101Z,96238.38
2022-08-03T18:49:19.438Z,96244.63
2022-08-03T18:51:47.907Z,96248.28
2022-08-03T18:54:51.733Z,96237.06
2022-08-03T18:57:19.818Z,96251.84
2022-08-03T19:00:06.454Z,96251.19
2022-08-03T19:02:49.321Z,96248.94
2022-08-03T19:05:23.548Z,96249.28
2022-08-03T19:08:19.716Z,96256.13
2022-08-03T19:10:57.714Z,96246.00
2022-08-03T19:13:36.134Z,96252.09
2022-08-03T19:16:04.053Z,96258.44
2022-08-03T19:18:37.462Z,96263.31
2022-08-03T19:21:15.513Z,96259.00
2022-08-03T19:23:47.848Z,96259.69
2022-08-03T19:26:30.514Z,96266.53
2022-08-03T19:28:58.716Z,96272.66
2022-08-03T19:31:30.709Z,96274.34
2022-08-03T19:34:00.258Z,96271.00
2022-08-03T19:36:28.527Z,96273.00
2022-08-03T19:38:58.817Z,96268.41
2022-08-03T19:44:25.871Z,96272.28
2022-08-03T19:47:00.600Z,96274.50
2022-08-03T19:50:01.313Z,96275.19
2022-08-03T19:52:24.356Z,96282.66
2022-08-03T19:55:00.327Z,96283.84
2022-08-03T19:57:28.840Z,96284.75
2022-08-03T19:59:57.030Z,96289.94
2022-08-03T20:02:26.064Z,96290.75
2022-08-03T20:04:56.904Z,96295.91
2022-08-03T20:07:25.119Z,96294.38
2022-08-03T20:09:54.535Z,96298.16
2022-08-03T20:12:26.665Z,96296.16
2022-08-03T20:14:56.344Z,96301.31
2022-08-03T20:17:22.906Z,96297.97
2022-08-03T20:20:09.498Z,96297.69
2022-08-03T20:22:37.340Z,96302.38
2022-08-03T20:25:11.489Z,96295.91
2022-08-03T20:28:07.071Z,96297.25
2022-08-03T20:30:33.095Z,96300.25
2022-08-03T20:32:59.545Z,96295.63
2022-08-03T20:35:26.837Z,96295.38
2022-08-03T20:37:54.487Z,96303.50
2022-08-03T20:40:22.303Z,96298.91
2022-08-03T20:42:55.082Z,96300.53
2022-08-03T20:45:59.551Z,96300.59
2022-08-03T20:48:09.677Z,96299.78
2022-08-03T20:50:38.306Z,96300.31
2022-08-03T20:53:06.865Z,96295.69
2022-08-03T20:55:47.783Z,96297.31
2022-08-03T20:58:20.744Z,96294.34
2022-08-03T21:00:51.595Z,96292.16
2022-08-03T21:03:18.715Z,96293.81
2022-08-03T21:05:51.882Z,96295.69
2022-08-03T21:08:22.301Z,96291.56
2022-08-03T21:10:50.173Z,96294.31
2022-08-03T21:13:08.339Z,96276.88
2022-08-03T21:13:39.196Z,96289.41
2022-08-03T21:16:14.055Z,96285.06
2022-08-03T21:18:49.157Z,96292.91
2022-08-03T21:21:17.599Z,96292.09
2022-08-03T21:23:49.679Z,96288.81
2022-08-03T21:26:18.517Z,96294.22
2022-08-03T21:28:46.833Z,96287.47
2022-08-03T21:31:14.767Z,96292.56
2022-08-03T21:33:52.741Z,96287.06
2022-08-03T21:36:19.389Z,96288.59
2022-08-03T21:38:55.967Z,96286.66
2022-08-03T21:41:23.622Z,96293.06
2022-08-03T21:43:49.954Z,96291.25
2022-08-03T21:46:18.857Z,96297.72
2022-08-03T21:48:48.180Z,96297.47
2022-08-03T21:51:17.263Z,96294.38
2022-08-03T21:54:03.054Z,96289.75
2022-08-03T21:56:54.427Z,96298.47
2022-08-03T21:59:23.045Z,96298.66
2022-08-03T22:01:55.346Z,96298.06
2022-08-03T22:04:45.904Z,96290.25
2022-08-03T22:07:13.036Z,96294.34
2022-08-03T22:09:39.596Z,96301.34
2022-08-03T22:12:16.442Z,96301.00
2022-08-03T22:14:43.379Z,96305.84
2022-08-03T22:17:10.171Z,96303.25
2022-08-03T22:19:37.459Z,96302.81
2022-08-03T22:22:08.379Z,96306.50
2022-08-03T22:24:36.292Z,96311.69
2022-08-03T22:27:22.538Z,96302.19
2022-08-03T22:29:51.356Z,96307.78
2022-08-03T22:32:17.841Z,96300.44
2022-08-03T22:34:46.270Z,96311.56
2022-08-03T22:37:16.067Z,96313.34
2022-08-03T22:39:43.211Z,96308.72
2022-08-03T22:42:10.369Z,96319.13
2022-08-03T22:44:37.094Z,96306.16
2022-08-03T22:47:04.420Z,96309.63
2022-08-03T22:49:32.034Z,96314.75
2022-08-03T22:51:58.995Z,96311.81
2022-08-03T22:54:25.528Z,96315.41
2022-08-03T22:56:52.447Z,96317.78
2022-08-03T22:59:41.469Z,96317.31
2022-08-03T23:02:20.339Z,96327.91
2022-08-03T23:04:56.843Z,96332.91
2022-08-03T23:07:38.291Z,96331.38
2022-08-03T23:10:08.531Z,96326.28
2022-08-03T23:12:36.655Z,96338.16
2022-08-03T23:15:07.608Z,96334.28
2022-08-03T23:17:58.041Z,96333.13
2022-08-03T23:20:26.628Z,96332.91
2022-08-03T23:22:54.353Z,96331.59
2022-08-03T23:25:21.856Z,96333.13
2022-08-03T23:28:05.230Z,96331.50
2022-08-03T23:30:34.694Z,96325.50
2022-08-03T23:33:02.766Z,96331.50
2022-08-03T23:36:29.492Z,96331.41
2022-08-03T23:38:35.788Z,96325.88
2022-08-03T23:41:03.814Z,96328.34
2022-08-03T23:43:45.009Z,96329.50
2022-08-03T23:46:20.008Z,96331.41
2022-08-03T23:48:46.329Z,96334.44
2022-08-03T23:51:38.822Z,96333.81
2022-08-03T23:54:20.935Z,96326.41
2022-08-03T23:57:31.530Z,96327.22
